sensor_id;sensor_type;location;lat;lon;timestamp;P1;durP1;ratioP1;P2;durP2;ratioP2
52320;SDS011;38261;54.090;13.382;2023-02-12T00:00:09;29.63;;;6.07;;
52320;SDS011;38261;54.090;13.382;2023-02-12T00:01:32;30.47;;;6.23;;
52320;SDS011;38261;54.090;13.382;2023-02-12T00:02:55;33.80;;;6.83;;
52320;SDS011;38261;54.090;13.382;2023-02-12T00:04:17;22.07;;;6.87;;
52320;SDS011;38261;54.090;13.382;2023-02-12T00:05:39;24.33;;;6.87;;
52320;SDS011;38261;54.090;13.382;2023-02-12T00:07:04;33.87;;;6.10;;
52320;SDS011;38261;54.090;13.382;2023-02-12T00:08:26;34.73;;;8.00;;
52320;SDS011;38261;54.090;13.382;2023-02-12T00:09:48;29.77;;;6.90;;
52320;SDS011;38261;54.090;13.382;2023-02-12T00:11:12;29.60;;;6.67;;
52320;SDS011;38261;54.090;13.382;2023-02-12T00:12:36;34.80;;;7.53;;
52320;SDS011;38261;54.090;13.382;2023-02-12T00:13:58;34.67;;;7.90;;
52320;SDS011;38261;54.090;13.382;2023-02-12T00:15:22;30.70;;;7.00;;
52320;SDS011;38261;54.090;13.382;2023-02-12T00:16:44;24.27;;;7.60;;
52320;SDS011;38261;54.090;13.382;2023-02-12T00:18:06;35.50;;;7.70;;
52320;SDS011;38261;54.090;13.382;2023-02-12T00:19:28;32.70;;;7.07;;
52320;SDS011;38261;54.090;13.382;2023-02-12T00:20:51;38.97;;;8.70;;
52320;SDS011;38261;54.090;13.382;2023-02-12T00:22:13;31.47;;;8.80;;
52320;SDS011;38261;54.090;13.382;2023-02-12T00:23:36;31.80;;;8.47;;
52320;SDS011;38261;54.090;13.382;2023-02-12T00:25:01;31.10;;;7.23;;
52320;SDS011;38261;54.090;13.382;2023-02-12T00:26:23;23.27;;;8.70;;
52320;SDS011;38261;54.090;13.382;2023-02-12T00:27:45;32.37;;;8.63;;
52320;SDS011;38261;54.090;13.382;2023-02-12T00:29:08;32.63;;;7.63;;
52320;SDS011;38261;54.090;13.382;2023-02-12T00:30:31;35.80;;;8.53;;
52320;SDS011;38261;54.090;13.382;2023-02-12T00:31:53;33.27;;;8.40;;
52320;SDS011;38261;54.090;13.382;2023-02-12T00:33:15;38.47;;;7.87;;
52320;SDS011;38261;54.090;13.382;2023-02-12T00:34:37;28.80;;;7.30;;
52320;SDS011;38261;54.090;13.382;2023-02-12T00:35:59;29.27;;;9.40;;
52320;SDS011;38261;54.090;13.382;2023-02-12T00:37:21;32.07;;;7.90;;
52320;SDS011;38261;54.090;13.382;2023-02-12T00:38:44;32.37;;;8.20;;
52320;SDS011;38261;54.090;13.382;2023-02-12T00:40:06;51.47;;;8.03;;
52320;SDS011;38261;54.090;13.382;2023-02-12T00:41:29;29.70;;;9.10;;
52320;SDS011;38261;54.090;13.382;2023-02-12T00:42:51;31.03;;;7.60;;
52320;SDS011;38261;54.090;13.382;2023-02-12T00:44:13;39.63;;;8.87;;
52320;SDS011;38261;54.090;13.382;2023-02-12T00:45:35;40.10;;;8.33;;
52320;SDS011;38261;54.090;13.382;2023-02-12T00:46:58;27.23;;;8.00;;
52320;SDS011;38261;54.090;13.382;2023-02-12T00:48:22;44.67;;;10.33;;
52320;SDS011;38261;54.090;13.382;2023-02-12T00:49:45;42.30;;;9.40;;
52320;SDS011;38261;54.090;13.382;2023-02-12T00:51:07;45.67;;;9.17;;
52320;SDS011;38261;54.090;13.382;2023-02-12T00:52:29;38.47;;;9.07;;
52320;SDS011;38261;54.090;13.382;2023-02-12T00:53:51;44.60;;;8.77;;
52320;SDS011;38261;54.090;13.382;2023-02-12T00:55:13;54.27;;;8.50;;
52320;SDS011;38261;54.090;13.382;2023-02-12T00:56:35;55.07;;;9.23;;
52320;SDS011;38261;54.090;13.382;2023-02-12T00:57:57;36.40;;;9.27;;
52320;SDS011;38261;54.090;13.382;2023-02-12T00:59:19;50.13;;;10.33;;
52320;SDS011;38261;54.090;13.382;2023-02-12T01:00:42;35.23;;;9.50;;
52320;SDS011;38261;54.090;13.382;2023-02-12T01:02:05;37.17;;;8.70;;
52320;SDS011;38261;54.090;13.382;2023-02-12T01:03:27;29.40;;;8.33;;
52320;SDS011;38261;54.090;13.382;2023-02-12T01:04:49;35.90;;;9.50;;
52320;SDS011;38261;54.090;13.382;2023-02-12T01:06:11;44.53;;;8.10;;
52320;SDS011;38261;54.090;13.382;2023-02-12T01:07:33;30.70;;;7.93;;
52320;SDS011;38261;54.090;13.382;2023-02-12T01:08:55;31.47;;;8.10;;
52320;SDS011;38261;54.090;13.382;2023-02-12T01:10:17;39.20;;;8.13;;
52320;SDS011;38261;54.090;13.382;2023-02-12T01:11:41;41.40;;;9.07;;
52320;SDS011;38261;54.090;13.382;2023-02-12T01:13:03;49.63;;;8.30;;
52320;SDS011;38261;54.090;13.382;2023-02-12T01:14:25;35.87;;;8.10;;
52320;SDS011;38261;54.090;13.382;2023-02-12T01:15:47;38.97;;;8.77;;
52320;SDS011;38261;54.090;13.382;2023-02-12T01:17:09;49.77;;;7.97;;
52320;SDS011;38261;54.090;13.382;2023-02-12T01:18:32;37.57;;;8.43;;
52320;SDS011;38261;54.090;13.382;2023-02-12T01:19:57;48.77;;;9.23;;
52320;SDS011;38261;54.090;13.382;2023-02-12T01:21:20;39.07;;;8.53;;
52320;SDS011;38261;54.090;13.382;2023-02-12T01:22:45;45.30;;;8.20;;
52320;SDS011;38261;54.090;13.382;2023-02-12T01:24:07;40.17;;;9.77;;
52320;SDS011;38261;54.090;13.382;2023-02-12T01:25:30;38.10;;;8.50;;
52320;SDS011;38261;54.090;13.382;2023-02-12T01:26:52;36.83;;;9.10;;
52320;SDS011;38261;54.090;13.382;2023-02-12T01:28:14;39.00;;;8.00;;
52320;SDS011;38261;54.090;13.382;2023-02-12T01:29:36;40.93;;;8.97;;
52320;SDS011;38261;54.090;13.382;2023-02-12T01:31:00;39.77;;;8.43;;
52320;SDS011;38261;54.090;13.382;2023-02-12T01:32:22;55.70;;;9.00;;
52320;SDS011;38261;54.090;13.382;2023-02-12T01:33:48;38.30;;;9.13;;
52320;SDS011;38261;54.090;13.382;2023-02-12T01:35:15;37.23;;;8.27;;
52320;SDS011;38261;54.090;13.382;2023-02-12T01:36:37;35.37;;;8.40;;
52320;SDS011;38261;54.090;13.382;2023-02-12T01:37:59;33.97;;;8.90;;
52320;SDS011;38261;54.090;13.382;2023-02-12T01:39:21;37.23;;;8.00;;
52320;SDS011;38261;54.090;13.382;2023-02-12T01:40:44;44.30;;;9.37;;
52320;SDS011;38261;54.090;13.382;2023-02-12T01:42:06;34.83;;;8.30;;
52320;SDS011;38261;54.090;13.382;2023-02-12T01:43:28;26.53;;;9.00;;
52320;SDS011;38261;54.090;13.382;2023-02-12T01:46:34;39.07;;;8.53;;
52320;SDS011;38261;54.090;13.382;2023-02-12T01:47:58;47.33;;;8.87;;
52320;SDS011;38261;54.090;13.382;2023-02-12T01:49:29;41.47;;;8.33;;
52320;SDS011;38261;54.090;13.382;2023-02-12T01:50:56;38.90;;;8.90;;
52320;SDS011;38261;54.090;13.382;2023-02-12T01:52:21;32.77;;;7.90;;
52320;SDS011;38261;54.090;13.382;2023-02-12T01:53:50;40.77;;;9.93;;
52320;SDS011;38261;54.090;13.382;2023-02-12T01:55:14;47.00;;;8.67;;
52320;SDS011;38261;54.090;13.382;2023-02-12T01:56:37;39.87;;;6.93;;
52320;SDS011;38261;54.090;13.382;2023-02-12T01:57:59;37.73;;;7.27;;
52320;SDS011;38261;54.090;13.382;2023-02-12T01:59:21;36.43;;;7.77;;
52320;SDS011;38261;54.090;13.382;2023-02-12T02:00:44;36.40;;;7.80;;
52320;SDS011;38261;54.090;13.382;2023-02-12T02:02:07;39.17;;;7.30;;
52320;SDS011;38261;54.090;13.382;2023-02-12T02:03:30;27.30;;;8.10;;
52320;SDS011;38261;54.090;13.382;2023-02-12T02:04:55;26.83;;;6.37;;
52320;SDS011;38261;54.090;13.382;2023-02-12T02:06:27;46.20;;;7.50;;
52320;SDS011;38261;54.090;13.382;2023-02-12T02:07:53;18.27;;;6.10;;
52320;SDS011;38261;54.090;13.382;2023-02-12T02:09:15;27.00;;;5.43;;
52320;SDS011;38261;54.090;13.382;2023-02-12T02:10:39;28.57;;;6.03;;
52320;SDS011;38261;54.090;13.382;2023-02-12T02:12:01;27.00;;;5.63;;
52320;SDS011;38261;54.090;13.382;2023-02-12T02:13:42;26.63;;;5.80;;
52320;SDS011;38261;54.090;13.382;2023-02-12T02:15:23;25.23;;;5.53;;
52320;SDS011;38261;54.090;13.382;2023-02-12T02:29:40;25.40;;;6.13;;
52320;SDS011;38261;54.090;13.382;2023-02-12T02:32:45;19.03;;;5.00;;
52320;SDS011;38261;54.090;13.382;2023-02-12T02:35:54;33.63;;;5.47;;
52320;SDS011;38261;54.090;13.382;2023-02-12T02:39:09;33.80;;;5.27;;
52320;SDS011;38261;54.090;13.382;2023-02-12T02:41:02;27.58;;;5.45;;
52320;SDS011;38261;54.090;13.382;2023-02-12T02:44:13;34.30;;;5.57;;
52320;SDS011;38261;54.090;13.382;2023-02-12T02:45:40;24.60;;;5.03;;
52320;SDS011;38261;54.090;13.382;2023-02-12T02:47:08;27.30;;;5.90;;
52320;SDS011;38261;54.090;13.382;2023-02-12T02:48:35;20.33;;;4.60;;
52320;SDS011;38261;54.090;13.382;2023-02-12T02:50:03;19.37;;;4.80;;
52320;SDS011;38261;54.090;13.382;2023-02-12T02:51:39;38.53;;;5.40;;
52320;SDS011;38261;54.090;13.382;2023-02-12T02:53:05;31.33;;;4.70;;
52320;SDS011;38261;54.090;13.382;2023-02-12T02:54:38;25.43;;;4.80;;
52320;SDS011;38261;54.090;13.382;2023-02-12T02:56:05;30.20;;;5.40;;
52320;SDS011;38261;54.090;13.382;2023-02-12T02:57:49;21.30;;;4.60;;
52320;SDS011;38261;54.090;13.382;2023-02-12T02:59:29;25.00;;;5.67;;
52320;SDS011;38261;54.090;13.382;2023-02-12T03:01:02;31.60;;;5.77;;
52320;SDS011;38261;54.090;13.382;2023-02-12T03:02:32;38.57;;;6.07;;
52320;SDS011;38261;54.090;13.382;2023-02-12T03:04:00;19.93;;;5.10;;
52320;SDS011;38261;54.090;13.382;2023-02-12T03:05:30;32.20;;;6.30;;
52320;SDS011;38261;54.090;13.382;2023-02-12T03:07:15;53.43;;;7.30;;
52320;SDS011;38261;54.090;13.382;2023-02-12T03:08:45;38.00;;;5.40;;
52320;SDS011;38261;54.090;13.382;2023-02-12T03:10:12;28.27;;;5.67;;
52320;SDS011;38261;54.090;13.382;2023-02-12T03:11:45;33.07;;;6.20;;
52320;SDS011;38261;54.090;13.382;2023-02-12T03:13:09;29.73;;;5.97;;
52320;SDS011;38261;54.090;13.382;2023-02-12T03:14:47;30.47;;;5.87;;
52320;SDS011;38261;54.090;13.382;2023-02-12T03:16:35;38.03;;;6.43;;
52320;SDS011;38261;54.090;13.382;2023-02-12T03:18:16;25.93;;;5.50;;
52320;SDS011;38261;54.090;13.382;2023-02-12T03:19:44;25.63;;;5.33;;
52320;SDS011;38261;54.090;13.382;2023-02-12T03:21:10;41.43;;;5.57;;
52320;SDS011;38261;54.090;13.382;2023-02-12T03:22:36;21.37;;;5.10;;
52320;SDS011;38261;54.090;13.382;2023-02-12T03:25:58;33.57;;;6.03;;
52320;SDS011;38261;54.090;13.382;2023-02-12T03:27:29;25.33;;;5.70;;
52320;SDS011;38261;54.090;13.382;2023-02-12T03:28:59;35.33;;;6.10;;
52320;SDS011;38261;54.090;13.382;2023-02-12T03:30:21;32.47;;;6.33;;
52320;SDS011;38261;54.090;13.382;2023-02-12T03:35:08;29.00;;;5.30;;
52320;SDS011;38261;54.090;13.382;2023-02-12T03:36:41;34.57;;;5.83;;
52320;SDS011;38261;54.090;13.382;2023-02-12T03:39:55;27.97;;;5.30;;
52320;SDS011;38261;54.090;13.382;2023-02-12T03:41:28;25.40;;;5.20;;
52320;SDS011;38261;54.090;13.382;2023-02-12T03:44:52;29.27;;;6.17;;
52320;SDS011;38261;54.090;13.382;2023-02-12T03:46:26;28.17;;;5.20;;
52320;SDS011;38261;54.090;13.382;2023-02-12T03:48:26;24.00;;;4.83;;
52320;SDS011;38261;54.090;13.382;2023-02-12T03:51:38;24.57;;;5.07;;
52320;SDS011;38261;54.090;13.382;2023-02-12T03:53:01;26.10;;;5.70;;
52320;SDS011;38261;54.090;13.382;2023-02-12T03:54:24;22.63;;;5.27;;
52320;SDS011;38261;54.090;13.382;2023-02-12T03:55:48;17.27;;;5.20;;
52320;SDS011;38261;54.090;13.382;2023-02-12T03:57:17;21.97;;;5.53;;
52320;SDS011;38261;54.090;13.382;2023-02-12T03:58:42;29.10;;;5.47;;
52320;SDS011;38261;54.090;13.382;2023-02-12T04:00:07;32.73;;;6.00;;
52320;SDS011;38261;54.090;13.382;2023-02-12T04:01:38;31.00;;;6.83;;
52320;SDS011;38261;54.090;13.382;2023-02-12T04:03:00;32.13;;;5.90;;
52320;SDS011;38261;54.090;13.382;2023-02-12T04:04:22;22.33;;;5.43;;
52320;SDS011;38261;54.090;13.382;2023-02-12T04:05:46;34.00;;;5.87;;
52320;SDS011;38261;54.090;13.382;2023-02-12T04:07:08;27.07;;;7.07;;
52320;SDS011;38261;54.090;13.382;2023-02-12T04:08:31;30.67;;;6.53;;
52320;SDS011;38261;54.090;13.382;2023-02-12T04:09:54;24.43;;;6.50;;
52320;SDS011;38261;54.090;13.382;2023-02-12T04:11:22;22.30;;;6.13;;
52320;SDS011;38261;54.090;13.382;2023-02-12T04:13:17;28.10;;;7.17;;
52320;SDS011;38261;54.090;13.382;2023-02-12T04:26:23;44.33;;;10.00;;
52320;SDS011;38261;54.090;13.382;2023-02-12T04:27:59;35.40;;;8.40;;
52320;SDS011;38261;54.090;13.382;2023-02-12T04:29:32;35.37;;;7.70;;
52320;SDS011;38261;54.090;13.382;2023-02-12T04:31:16;32.97;;;7.67;;
52320;SDS011;38261;54.090;13.382;2023-02-12T04:32:51;33.97;;;8.43;;
52320;SDS011;38261;54.090;13.382;2023-02-12T04:34:20;34.47;;;10.27;;
52320;SDS011;38261;54.090;13.382;2023-02-12T04:36:00;39.90;;;9.70;;
52320;SDS011;38261;54.090;13.382;2023-02-12T04:37:25;52.23;;;10.03;;
52320;SDS011;38261;54.090;13.382;2023-02-12T04:38:57;27.50;;;9.27;;
52320;SDS011;38261;54.090;13.382;2023-02-12T04:40:23;36.67;;;10.50;;
52320;SDS011;38261;54.090;13.382;2023-02-12T04:41:46;39.03;;;8.97;;
52320;SDS011;38261;54.090;13.382;2023-02-12T04:43:09;37.03;;;9.40;;
52320;SDS011;38261;54.090;13.382;2023-02-12T04:44:33;45.50;;;11.17;;
52320;SDS011;38261;54.090;13.382;2023-02-12T04:45:58;54.30;;;10.90;;
52320;SDS011;38261;54.090;13.382;2023-02-12T04:47:20;51.20;;;11.07;;
52320;SDS011;38261;54.090;13.382;2023-02-12T04:48:52;52.03;;;12.97;;
52320;SDS011;38261;54.090;13.382;2023-02-12T04:50:18;39.23;;;10.00;;
52320;SDS011;38261;54.090;13.382;2023-02-12T04:51:41;37.73;;;10.20;;
52320;SDS011;38261;54.090;13.382;2023-02-12T04:53:03;45.30;;;12.07;;
52320;SDS011;38261;54.090;13.382;2023-02-12T04:54:26;51.30;;;10.67;;
52320;SDS011;38261;54.090;13.382;2023-02-12T04:55:48;40.17;;;10.87;;
52320;SDS011;38261;54.090;13.382;2023-02-12T04:57:11;41.83;;;9.60;;
52320;SDS011;38261;54.090;13.382;2023-02-12T04:58:33;53.40;;;11.30;;
52320;SDS011;38261;54.090;13.382;2023-02-12T04:59:55;47.17;;;11.77;;
52320;SDS011;38261;54.090;13.382;2023-02-12T05:01:18;55.83;;;12.20;;
52320;SDS011;38261;54.090;13.382;2023-02-12T05:02:40;39.30;;;9.80;;
52320;SDS011;38261;54.090;13.382;2023-02-12T05:04:02;42.90;;;10.60;;
52320;SDS011;38261;54.090;13.382;2023-02-12T05:05:26;45.43;;;9.87;;
52320;SDS011;38261;54.090;13.382;2023-02-12T05:06:48;39.37;;;10.27;;
52320;SDS011;38261;54.090;13.382;2023-02-12T05:08:10;44.73;;;12.27;;
52320;SDS011;38261;54.090;13.382;2023-02-12T05:09:32;42.43;;;10.50;;
52320;SDS011;38261;54.090;13.382;2023-02-12T05:10:55;41.53;;;10.53;;
52320;SDS011;38261;54.090;13.382;2023-02-12T05:12:17;50.07;;;11.30;;
52320;SDS011;38261;54.090;13.382;2023-02-12T05:13:42;41.33;;;10.20;;
52320;SDS011;38261;54.090;13.382;2023-02-12T05:15:05;51.53;;;10.80;;
52320;SDS011;38261;54.090;13.382;2023-02-12T05:16:27;48.63;;;10.67;;
52320;SDS011;38261;54.090;13.382;2023-02-12T05:17:49;56.33;;;11.77;;
52320;SDS011;38261;54.090;13.382;2023-02-12T05:19:12;39.57;;;9.67;;
52320;SDS011;38261;54.090;13.382;2023-02-12T05:20:34;30.53;;;8.93;;
52320;SDS011;38261;54.090;13.382;2023-02-12T05:21:56;57.87;;;12.13;;
52320;SDS011;38261;54.090;13.382;2023-02-12T05:23:19;43.80;;;9.90;;
52320;SDS011;38261;54.090;13.382;2023-02-12T05:24:41;32.10;;;9.30;;
52320;SDS011;38261;54.090;13.382;2023-02-12T05:26:04;35.30;;;9.47;;
52320;SDS011;38261;54.090;13.382;2023-02-12T05:27:29;40.57;;;9.57;;
52320;SDS011;38261;54.090;13.382;2023-02-12T05:28:51;32.80;;;9.67;;
52320;SDS011;38261;54.090;13.382;2023-02-12T05:30:13;37.10;;;11.27;;
52320;SDS011;38261;54.090;13.382;2023-02-12T05:31:36;43.10;;;10.07;;
52320;SDS011;38261;54.090;13.382;2023-02-12T05:32:58;42.40;;;10.03;;
52320;SDS011;38261;54.090;13.382;2023-02-12T05:34:21;43.80;;;10.63;;
52320;SDS011;38261;54.090;13.382;2023-02-12T05:35:43;46.33;;;10.90;;
52320;SDS011;38261;54.090;13.382;2023-02-12T05:37:05;43.27;;;10.57;;
52320;SDS011;38261;54.090;13.382;2023-02-12T05:38:27;35.63;;;10.40;;
52320;SDS011;38261;54.090;13.382;2023-02-12T05:39:49;31.97;;;10.20;;
52320;SDS011;38261;54.090;13.382;2023-02-12T05:41:14;54.93;;;9.93;;
52320;SDS011;38261;54.090;13.382;2023-02-12T05:42:38;41.00;;;10.40;;
52320;SDS011;38261;54.090;13.382;2023-02-12T05:44:03;33.90;;;8.90;;
52320;SDS011;38261;54.090;13.382;2023-02-12T05:45:27;42.17;;;9.37;;
52320;SDS011;38261;54.090;13.382;2023-02-12T05:46:49;32.97;;;8.60;;
52320;SDS011;38261;54.090;13.382;2023-02-12T05:48:12;28.97;;;9.53;;
52320;SDS011;38261;54.090;13.382;2023-02-12T05:49:34;29.73;;;9.00;;
52320;SDS011;38261;54.090;13.382;2023-02-12T05:51:03;21.80;;;9.40;;
52320;SDS011;38261;54.090;13.382;2023-02-12T05:52:30;31.93;;;9.23;;
52320;SDS011;38261;54.090;13.382;2023-02-12T05:53:55;34.23;;;9.17;;
52320;SDS011;38261;54.090;13.382;2023-02-12T05:55:20;22.40;;;8.73;;
52320;SDS011;38261;54.090;13.382;2023-02-12T05:56:43;30.53;;;8.30;;
52320;SDS011;38261;54.090;13.382;2023-02-12T05:58:07;25.37;;;8.00;;
52320;SDS011;38261;54.090;13.382;2023-02-12T05:59:29;31.40;;;7.90;;
52320;SDS011;38261;54.090;13.382;2023-02-12T06:00:51;28.37;;;8.90;;
52320;SDS011;38261;54.090;13.382;2023-02-12T06:02:13;18.60;;;7.23;;
52320;SDS011;38261;54.090;13.382;2023-02-12T06:03:36;22.73;;;8.17;;
52320;SDS011;38261;54.090;13.382;2023-02-12T06:04:58;41.10;;;9.60;;
52320;SDS011;38261;54.090;13.382;2023-02-12T06:06:20;33.63;;;8.30;;
52320;SDS011;38261;54.090;13.382;2023-02-12T06:07:42;25.03;;;7.50;;
52320;SDS011;38261;54.090;13.382;2023-02-12T06:09:05;22.90;;;8.60;;
52320;SDS011;38261;54.090;13.382;2023-02-12T06:10:27;34.43;;;9.20;;
52320;SDS011;38261;54.090;13.382;2023-02-12T06:11:49;26.63;;;8.73;;
52320;SDS011;38261;54.090;13.382;2023-02-12T06:13:12;22.70;;;7.10;;
52320;SDS011;38261;54.090;13.382;2023-02-12T06:14:34;25.17;;;9.80;;
52320;SDS011;38261;54.090;13.382;2023-02-12T06:15:56;26.53;;;9.57;;
52320;SDS011;38261;54.090;13.382;2023-02-12T06:17:20;30.00;;;7.40;;
52320;SDS011;38261;54.090;13.382;2023-02-12T06:18:42;23.73;;;8.23;;
52320;SDS011;38261;54.090;13.382;2023-02-12T06:20:04;31.07;;;9.00;;
52320;SDS011;38261;54.090;13.382;2023-02-12T06:21:26;27.40;;;8.87;;
52320;SDS011;38261;54.090;13.382;2023-02-12T06:22:49;31.03;;;8.83;;
52320;SDS011;38261;54.090;13.382;2023-02-12T06:24:12;19.37;;;7.80;;
52320;SDS011;38261;54.090;13.382;2023-02-12T06:25:35;27.27;;;9.33;;
52320;SDS011;38261;54.090;13.382;2023-02-12T06:26:58;18.00;;;7.57;;
52320;SDS011;38261;54.090;13.382;2023-02-12T06:28:20;36.43;;;8.70;;
52320;SDS011;38261;54.090;13.382;2023-02-12T06:29:43;20.93;;;8.10;;
52320;SDS011;38261;54.090;13.382;2023-02-12T06:31:05;23.00;;;8.60;;
52320;SDS011;38261;54.090;13.382;2023-02-12T06:32:40;27.10;;;7.83;;
52320;SDS011;38261;54.090;13.382;2023-02-12T06:34:03;23.30;;;9.37;;
52320;SDS011;38261;54.090;13.382;2023-02-12T06:35:27;22.43;;;8.67;;
52320;SDS011;38261;54.090;13.382;2023-02-12T06:36:49;26.47;;;7.83;;
52320;SDS011;38261;54.090;13.382;2023-02-12T06:38:12;26.83;;;8.20;;
52320;SDS011;38261;54.090;13.382;2023-02-12T06:39:34;20.33;;;7.97;;
52320;SDS011;38261;54.090;13.382;2023-02-12T06:40:59;24.77;;;8.30;;
52320;SDS011;38261;54.090;13.382;2023-02-12T06:42:22;18.77;;;7.23;;
52320;SDS011;38261;54.090;13.382;2023-02-12T06:43:45;20.53;;;7.57;;
52320;SDS011;38261;54.090;13.382;2023-02-12T06:45:07;21.33;;;8.00;;
52320;SDS011;38261;54.090;13.382;2023-02-12T06:46:29;23.67;;;8.10;;
52320;SDS011;38261;54.090;13.382;2023-02-12T06:47:52;18.17;;;8.40;;
52320;SDS011;38261;54.090;13.382;2023-02-12T06:49:15;17.17;;;6.00;;
52320;SDS011;38261;54.090;13.382;2023-02-12T06:50:37;16.13;;;7.03;;
52320;SDS011;38261;54.090;13.382;2023-02-12T06:52:02;16.83;;;6.93;;
52320;SDS011;38261;54.090;13.382;2023-02-12T06:53:25;17.73;;;6.80;;
52320;SDS011;38261;54.090;13.382;2023-02-12T06:54:47;21.90;;;6.63;;
52320;SDS011;38261;54.090;13.382;2023-02-12T06:56:10;22.40;;;7.07;;
52320;SDS011;38261;54.090;13.382;2023-02-12T06:57:33;19.07;;;6.77;;
52320;SDS011;38261;54.090;13.382;2023-02-12T06:58:56;13.80;;;5.60;;
52320;SDS011;38261;54.090;13.382;2023-02-12T07:00:21;14.93;;;5.90;;
52320;SDS011;38261;54.090;13.382;2023-02-12T07:01:44;15.60;;;6.57;;
52320;SDS011;38261;54.090;13.382;2023-02-12T07:03:06;18.47;;;6.20;;
52320;SDS011;38261;54.090;13.382;2023-02-12T07:04:28;14.60;;;5.57;;
52320;SDS011;38261;54.090;13.382;2023-02-12T07:05:51;16.03;;;5.93;;
52320;SDS011;38261;54.090;13.382;2023-02-12T07:07:13;16.00;;;5.77;;
52320;SDS011;38261;54.090;13.382;2023-02-12T07:08:35;20.90;;;7.17;;
52320;SDS011;38261;54.090;13.382;2023-02-12T07:09:57;19.20;;;6.80;;
52320;SDS011;38261;54.090;13.382;2023-02-12T07:11:26;16.50;;;6.70;;
52320;SDS011;38261;54.090;13.382;2023-02-12T07:12:50;21.67;;;6.57;;
52320;SDS011;38261;54.090;13.382;2023-02-12T07:14:13;22.57;;;7.13;;
52320;SDS011;38261;54.090;13.382;2023-02-12T07:15:37;17.80;;;7.40;;
52320;SDS011;38261;54.090;13.382;2023-02-12T07:17:00;19.03;;;6.60;;
52320;SDS011;38261;54.090;13.382;2023-02-12T07:18:26;16.40;;;6.87;;
52320;SDS011;38261;54.090;13.382;2023-02-12T07:19:48;15.80;;;6.63;;
52320;SDS011;38261;54.090;13.382;2023-02-12T07:21:11;17.17;;;7.40;;
52320;SDS011;38261;54.090;13.382;2023-02-12T07:22:34;19.57;;;7.80;;
52320;SDS011;38261;54.090;13.382;2023-02-12T07:23:57;22.67;;;7.80;;
52320;SDS011;38261;54.090;13.382;2023-02-12T07:25:19;20.30;;;7.13;;
52320;SDS011;38261;54.090;13.382;2023-02-12T07:26:41;20.13;;;7.30;;
52320;SDS011;38261;54.090;13.382;2023-02-12T07:28:04;14.40;;;7.20;;
52320;SDS011;38261;54.090;13.382;2023-02-12T07:29:26;21.67;;;6.67;;
52320;SDS011;38261;54.090;13.382;2023-02-12T07:30:48;16.37;;;7.00;;
52320;SDS011;38261;54.090;13.382;2023-02-12T07:32:11;21.00;;;7.30;;
52320;SDS011;38261;54.090;13.382;2023-02-12T07:33:33;15.00;;;7.30;;
52320;SDS011;38261;54.090;13.382;2023-02-12T07:34:56;16.50;;;6.30;;
52320;SDS011;38261;54.090;13.382;2023-02-12T07:36:18;15.67;;;6.43;;
52320;SDS011;38261;54.090;13.382;2023-02-12T07:37:41;17.70;;;5.90;;
52320;SDS011;38261;54.090;13.382;2023-02-12T07:39:03;13.70;;;6.23;;
52320;SDS011;38261;54.090;13.382;2023-02-12T07:40:25;16.20;;;6.23;;
52320;SDS011;38261;54.090;13.382;2023-02-12T07:41:47;16.37;;;6.90;;
52320;SDS011;38261;54.090;13.382;2023-02-12T07:43:10;15.83;;;6.20;;
52320;SDS011;38261;54.090;13.382;2023-02-12T07:44:32;17.03;;;6.53;;
52320;SDS011;38261;54.090;13.382;2023-02-12T07:45:54;12.30;;;5.30;;
52320;SDS011;38261;54.090;13.382;2023-02-12T07:47:17;17.47;;;7.37;;
52320;SDS011;38261;54.090;13.382;2023-02-12T07:48:39;13.57;;;6.33;;
52320;SDS011;38261;54.090;13.382;2023-02-12T07:50:01;15.80;;;5.93;;
52320;SDS011;38261;54.090;13.382;2023-02-12T07:51:23;19.67;;;5.80;;
52320;SDS011;38261;54.090;13.382;2023-02-12T07:52:50;12.73;;;5.97;;
52320;SDS011;38261;54.090;13.382;2023-02-12T07:54:12;9.30;;;4.90;;
52320;SDS011;38261;54.090;13.382;2023-02-12T07:55:35;13.73;;;6.60;;
52320;SDS011;38261;54.090;13.382;2023-02-12T07:56:57;14.63;;;6.10;;
52320;SDS011;38261;54.090;13.382;2023-02-12T07:58:21;19.30;;;6.43;;
52320;SDS011;38261;54.090;13.382;2023-02-12T07:59:44;14.10;;;6.17;;
52320;SDS011;38261;54.090;13.382;2023-02-12T08:02:52;13.20;;;6.20;;
52320;SDS011;38261;54.090;13.382;2023-02-12T08:04:15;13.00;;;5.40;;
52320;SDS011;38261;54.090;13.382;2023-02-12T08:05:39;14.23;;;5.67;;
52320;SDS011;38261;54.090;13.382;2023-02-12T08:07:01;11.73;;;5.80;;
52320;SDS011;38261;54.090;13.382;2023-02-12T08:08:23;9.60;;;5.30;;
52320;SDS011;38261;54.090;13.382;2023-02-12T08:09:46;10.00;;;5.97;;
52320;SDS011;38261;54.090;13.382;2023-02-12T08:11:08;15.83;;;5.70;;
52320;SDS011;38261;54.090;13.382;2023-02-12T08:12:31;11.30;;;4.90;;
52320;SDS011;38261;54.090;13.382;2023-02-12T08:13:53;10.67;;;4.80;;
52320;SDS011;38261;54.090;13.382;2023-02-12T08:15:15;10.10;;;4.73;;
52320;SDS011;38261;54.090;13.382;2023-02-12T08:16:38;10.70;;;5.10;;
52320;SDS011;38261;54.090;13.382;2023-02-12T08:18:01;9.40;;;5.23;;
52320;SDS011;38261;54.090;13.382;2023-02-12T08:19:23;9.17;;;5.10;;
52320;SDS011;38261;54.090;13.382;2023-02-12T08:20:47;11.87;;;5.53;;
52320;SDS011;38261;54.090;13.382;2023-02-12T08:22:09;11.10;;;5.67;;
52320;SDS011;38261;54.090;13.382;2023-02-12T08:23:31;9.27;;;4.40;;
52320;SDS011;38261;54.090;13.382;2023-02-12T08:24:54;13.23;;;6.20;;
52320;SDS011;38261;54.090;13.382;2023-02-12T08:27:40;8.83;;;4.70;;
52320;SDS011;38261;54.090;13.382;2023-02-12T08:29:06;15.60;;;5.00;;
52320;SDS011;38261;54.090;13.382;2023-02-12T08:30:30;11.63;;;5.50;;
52320;SDS011;38261;54.090;13.382;2023-02-12T08:31:57;10.33;;;5.90;;
52320;SDS011;38261;54.090;13.382;2023-02-12T08:33:21;10.73;;;6.03;;
52320;SDS011;38261;54.090;13.382;2023-02-12T08:34:43;14.70;;;5.50;;
52320;SDS011;38261;54.090;13.382;2023-02-12T08:36:06;14.63;;;6.33;;
52320;SDS011;38261;54.090;13.382;2023-02-12T08:37:32;17.77;;;5.60;;
52320;SDS011;38261;54.090;13.382;2023-02-12T08:38:57;12.17;;;6.20;;
52320;SDS011;38261;54.090;13.382;2023-02-12T08:40:20;10.30;;;5.40;;
52320;SDS011;38261;54.090;13.382;2023-02-12T08:41:42;11.83;;;5.90;;
52320;SDS011;38261;54.090;13.382;2023-02-12T08:43:04;18.07;;;6.00;;
52320;SDS011;38261;54.090;13.382;2023-02-12T08:44:26;13.13;;;5.53;;
52320;SDS011;38261;54.090;13.382;2023-02-12T08:45:48;14.00;;;6.60;;
52320;SDS011;38261;54.090;13.382;2023-02-12T08:47:10;13.80;;;6.17;;
52320;SDS011;38261;54.090;13.382;2023-02-12T08:48:32;15.70;;;6.73;;
52320;SDS011;38261;54.090;13.382;2023-02-12T08:49:55;15.63;;;5.70;;
52320;SDS011;38261;54.090;13.382;2023-02-12T08:51:18;14.63;;;5.80;;
52320;SDS011;38261;54.090;13.382;2023-02-12T08:52:42;12.43;;;5.80;;
52320;SDS011;38261;54.090;13.382;2023-02-12T08:54:05;19.43;;;6.50;;
52320;SDS011;38261;54.090;13.382;2023-02-12T08:55:29;16.20;;;7.07;;
52320;SDS011;38261;54.090;13.382;2023-02-12T08:56:56;11.80;;;6.30;;
52320;SDS011;38261;54.090;13.382;2023-02-12T08:58:20;11.70;;;5.17;;
52320;SDS011;38261;54.090;13.382;2023-02-12T08:59:42;14.03;;;5.57;;
52320;SDS011;38261;54.090;13.382;2023-02-12T09:01:04;9.60;;;5.33;;